sensor_id;sensor_type;location;lat;lon;timestamp;P1;durP1;ratioP1;P2;durP2;ratioP2
12867;SDS011;33517;49.866;8.320;2023-03-01T00:02:07;0.68;;;0.68;;
12867;SDS011;33517;49.866;8.320;2023-03-01T00:04:59;0.68;;;0.68;;
12867;SDS011;33517;49.866;8.320;2023-03-01T00:07:53;1.02;;;0.70;;
12867;SDS011;33517;49.866;8.320;2023-03-01T00:10:45;0.95;;;0.95;;
12867;SDS011;33517;49.866;8.320;2023-03-01T00:13:37;0.88;;;0.75;;
12867;SDS011;33517;49.866;8.320;2023-03-01T00:16:30;1.33;;;0.60;;
12867;SDS011;33517;49.866;8.320;2023-03-01T00:19:24;0.60;;;0.60;;
12867;SDS011;33517;49.866;8.320;2023-03-01T00:22:16;0.75;;;0.70;;
12867;SDS011;33517;49.866;8.320;2023-03-01T00:25:09;1.23;;;1.02;;
12867;SDS011;33517;49.866;8.320;2023-03-01T00:28:01;0.77;;;0.77;;
12867;SDS011;33517;49.866;8.320;2023-03-01T00:30:53;0.63;;;0.63;;
12867;SDS011;33517;49.866;8.320;2023-03-01T00:33:45;1.40;;;1.05;;
12867;SDS011;33517;49.866;8.320;2023-03-01T00:36:37;0.35;;;0.35;;
12867;SDS011;33517;49.866;8.320;2023-03-01T00:39:29;0.70;;;0.70;;
12867;SDS011;33517;49.866;8.320;2023-03-01T00:42:22;0.77;;;0.77;;
12867;SDS011;33517;49.866;8.320;2023-03-01T00:45:14;0.50;;;0.50;;
12867;SDS011;33517;49.866;8.320;2023-03-01T00:48:06;0.50;;;0.50;;
12867;SDS011;33517;49.866;8.320;2023-03-01T00:51:03;0.93;;;0.80;;
12867;SDS011;33517;49.866;8.320;2023-03-01T00:53:57;0.38;;;0.38;;
12867;SDS011;33517;49.866;8.320;2023-03-01T00:56:51;0.82;;;0.82;;
12867;SDS011;33517;49.866;8.320;2023-03-01T00:59:44;1.17;;;1.02;;
12867;SDS011;33517;49.866;8.320;2023-03-01T01:02:36;1.85;;;0.65;;
12867;SDS011;33517;49.866;8.320;2023-03-01T01:05:28;0.77;;;0.77;;
12867;SDS011;33517;49.866;8.320;2023-03-01T01:08:21;2.17;;;1.50;;
12867;SDS011;33517;49.866;8.320;2023-03-01T01:11:13;1.23;;;1.00;;
12867;SDS011;33517;49.866;8.320;2023-03-01T01:14:05;1.13;;;1.08;;
12867;SDS011;33517;49.866;8.320;2023-03-01T01:16:58;0.90;;;0.65;;
12867;SDS011;33517;49.866;8.320;2023-03-01T01:19:50;0.50;;;0.50;;
12867;SDS011;33517;49.866;8.320;2023-03-01T01:22:42;1.48;;;1.10;;
12867;SDS011;33517;49.866;8.320;2023-03-01T01:25:34;0.93;;;0.85;;
12867;SDS011;33517;49.866;8.320;2023-03-01T01:28:27;0.75;;;0.75;;
12867;SDS011;33517;49.866;8.320;2023-03-01T01:31:19;0.35;;;0.35;;
12867;SDS011;33517;49.866;8.320;2023-03-01T01:34:14;0.85;;;0.85;;
12867;SDS011;33517;49.866;8.320;2023-03-01T01:37:07;0.50;;;0.50;;
12867;SDS011;33517;49.866;8.320;2023-03-01T01:39:59;0.63;;;0.63;;
12867;SDS011;33517;49.866;8.320;2023-03-01T01:42:51;0.95;;;0.95;;
12867;SDS011;33517;49.866;8.320;2023-03-01T01:45:43;0.68;;;0.68;;
12867;SDS011;33517;49.866;8.320;2023-03-01T01:48:38;0.65;;;0.65;;
12867;SDS011;33517;49.866;8.320;2023-03-01T01:51:35;1.00;;;0.57;;
12867;SDS011;33517;49.866;8.320;2023-03-01T01:54:34;0.98;;;0.98;;
12867;SDS011;33517;49.866;8.320;2023-03-01T01:57:32;1.55;;;1.45;;
12867;SDS011;33517;49.866;8.320;2023-03-01T02:00:28;0.30;;;0.30;;
12867;SDS011;33517;49.866;8.320;2023-03-01T02:03:22;1.17;;;1.00;;
12867;SDS011;33517;49.866;8.320;2023-03-01T02:06:20;2.13;;;1.27;;
12867;SDS011;33517;49.866;8.320;2023-03-01T02:09:20;0.43;;;0.43;;
12867;SDS011;33517;49.866;8.320;2023-03-01T02:12:15;0.40;;;0.40;;
12867;SDS011;33517;49.866;8.320;2023-03-01T02:15:09;0.47;;;0.47;;
12867;SDS011;33517;49.866;8.320;2023-03-01T02:18:02;0.65;;;0.65;;
12867;SDS011;33517;49.866;8.320;2023-03-01T02:20:59;0.60;;;0.50;;
12867;SDS011;33517;49.866;8.320;2023-03-01T02:24:02;0.77;;;0.77;;
12867;SDS011;33517;49.866;8.320;2023-03-01T02:27:00;0.63;;;0.63;;
12867;SDS011;33517;49.866;8.320;2023-03-01T02:29:53;0.85;;;0.85;;
12867;SDS011;33517;49.866;8.320;2023-03-01T02:32:45;0.50;;;0.50;;
12867;SDS011;33517;49.866;8.320;2023-03-01T02:35:38;1.40;;;1.17;;
12867;SDS011;33517;49.866;8.320;2023-03-01T02:38:31;0.82;;;0.82;;
12867;SDS011;33517;49.866;8.320;2023-03-01T02:41:23;1.17;;;1.10;;
12867;SDS011;33517;49.866;8.320;2023-03-01T02:44:18;0.70;;;0.70;;
12867;SDS011;33517;49.866;8.320;2023-03-01T02:47:12;2.03;;;0.98;;
12867;SDS011;33517;49.866;8.320;2023-03-01T02:50:09;0.80;;;0.80;;
12867;SDS011;33517;49.866;8.320;2023-03-01T02:53:08;1.15;;;0.98;;
12867;SDS011;33517;49.866;8.320;2023-03-01T02:56:04;0.32;;;0.32;;
12867;SDS011;33517;49.866;8.320;2023-03-01T02:58:56;0.50;;;0.50;;
12867;SDS011;33517;49.866;8.320;2023-03-01T03:01:50;0.55;;;0.55;;
12867;SDS011;33517;49.866;8.320;2023-03-01T03:04:44;0.65;;;0.65;;
12867;SDS011;33517;49.866;8.320;2023-03-01T03:07:36;0.63;;;0.63;;
12867;SDS011;33517;49.866;8.320;2023-03-01T03:10:30;1.10;;;0.82;;
12867;SDS011;33517;49.866;8.320;2023-03-01T03:13:24;2.97;;;1.13;;
12867;SDS011;33517;49.866;8.320;2023-03-01T03:16:19;0.57;;;0.57;;
12867;SDS011;33517;49.866;8.320;2023-03-01T03:19:11;0.50;;;0.50;;
12867;SDS011;33517;49.866;8.320;2023-03-01T03:22:05;0.65;;;0.65;;
12867;SDS011;33517;49.866;8.320;2023-03-01T03:24:59;1.40;;;1.30;;
12867;SDS011;33517;49.866;8.320;2023-03-01T03:27:51;0.93;;;0.93;;
12867;SDS011;33517;49.866;8.320;2023-03-01T03:30:46;1.23;;;1.15;;
12867;SDS011;33517;49.866;8.320;2023-03-01T03:33:39;0.73;;;0.73;;
12867;SDS011;33517;49.866;8.320;2023-03-01T03:36:31;0.60;;;0.60;;
12867;SDS011;33517;49.866;8.320;2023-03-01T03:39:24;1.00;;;1.00;;
12867;SDS011;33517;49.866;8.320;2023-03-01T03:42:16;0.60;;;0.60;;
12867;SDS011;33517;49.866;8.320;2023-03-01T03:45:08;0.82;;;0.82;;
12867;SDS011;33517;49.866;8.320;2023-03-01T03:48:00;0.70;;;0.70;;
12867;SDS011;33517;49.866;8.320;2023-03-01T03:50:54;4.40;;;1.00;;
12867;SDS011;33517;49.866;8.320;2023-03-01T03:53:47;0.40;;;0.40;;
12867;SDS011;33517;49.866;8.320;2023-03-01T03:56:40;1.52;;;1.42;;
12867;SDS011;33517;49.866;8.320;2023-03-01T03:59:34;0.50;;;0.50;;
12867;SDS011;33517;49.866;8.320;2023-03-01T04:02:26;0.35;;;0.30;;
12867;SDS011;33517;49.866;8.320;2023-03-01T04:05:18;0.65;;;0.65;;
12867;SDS011;33517;49.866;8.320;2023-03-01T04:08:10;0.73;;;0.68;;
12867;SDS011;33517;49.866;8.320;2023-03-01T04:11:03;2.47;;;1.98;;
12867;SDS011;33517;49.866;8.320;2023-03-01T04:14:11;0.55;;;0.55;;
12867;SDS011;33517;49.866;8.320;2023-03-01T04:17:03;0.65;;;0.57;;
12867;SDS011;33517;49.866;8.320;2023-03-01T04:19:55;1.65;;;1.30;;
12867;SDS011;33517;49.866;8.320;2023-03-01T04:22:47;0.50;;;0.50;;
12867;SDS011;33517;49.866;8.320;2023-03-01T04:25:39;1.40;;;1.30;;
12867;SDS011;33517;49.866;8.320;2023-03-01T04:28:34;0.73;;;0.73;;
12867;SDS011;33517;49.866;8.320;2023-03-01T04:31:28;0.60;;;0.60;;
12867;SDS011;33517;49.866;8.320;2023-03-01T04:34:20;0.82;;;0.77;;
12867;SDS011;33517;49.866;8.320;2023-03-01T04:37:12;0.80;;;0.80;;
12867;SDS011;33517;49.866;8.320;2023-03-01T04:40:06;1.48;;;0.93;;
12867;SDS011;33517;49.866;8.320;2023-03-01T04:43:06;0.98;;;0.98;;
12867;SDS011;33517;49.866;8.320;2023-03-01T04:46:00;1.90;;;1.00;;
12867;SDS011;33517;49.866;8.320;2023-03-01T04:48:55;0.85;;;0.85;;
12867;SDS011;33517;49.866;8.320;2023-03-01T04:51:47;0.35;;;0.35;;
12867;SDS011;33517;49.866;8.320;2023-03-01T04:54:38;0.30;;;0.30;;
12867;SDS011;33517;49.866;8.320;2023-03-01T04:57:30;4.78;;;1.75;;
12867;SDS011;33517;49.866;8.320;2023-03-01T05:00:23;0.68;;;0.68;;
12867;SDS011;33517;49.866;8.320;2023-03-01T05:03:15;0.40;;;0.40;;
12867;SDS011;33517;49.866;8.320;2023-03-01T05:06:10;0.73;;;0.70;;
12867;SDS011;33517;49.866;8.320;2023-03-01T05:09:02;0.68;;;0.68;;
12867;SDS011;33517;49.866;8.320;2023-03-01T05:11:54;1.23;;;1.13;;
12867;SDS011;33517;49.866;8.320;2023-03-01T05:14:46;0.75;;;0.75;;
12867;SDS011;33517;49.866;8.320;2023-03-01T05:17:37;1.33;;;1.17;;
12867;SDS011;33517;49.866;8.320;2023-03-01T05:20:29;1.67;;;0.57;;
12867;SDS011;33517;49.866;8.320;2023-03-01T05:23:23;1.27;;;1.27;;
12867;SDS011;33517;49.866;8.320;2023-03-01T05:26:15;2.15;;;1.95;;
12867;SDS011;33517;49.866;8.320;2023-03-01T05:29:08;1.25;;;1.17;;
12867;SDS011;33517;49.866;8.320;2023-03-01T05:32:00;1.10;;;1.05;;
12867;SDS011;33517;49.866;8.320;2023-03-01T05:34:53;2.47;;;0.65;;
12867;SDS011;33517;49.866;8.320;2023-03-01T05:37:46;1.13;;;0.95;;
12867;SDS011;33517;49.866;8.320;2023-03-01T05:40:41;0.70;;;0.70;;
12867;SDS011;33517;49.866;8.320;2023-03-01T05:43:33;0.32;;;0.32;;
12867;SDS011;33517;49.866;8.320;2023-03-01T05:46:25;2.17;;;1.00;;
12867;SDS011;33517;49.866;8.320;2023-03-01T05:49:17;1.52;;;1.50;;
12867;SDS011;33517;49.866;8.320;2023-03-01T05:52:09;0.60;;;0.60;;
12867;SDS011;33517;49.866;8.320;2023-03-01T05:55:01;1.85;;;1.75;;
12867;SDS011;33517;49.866;8.320;2023-03-01T05:57:54;1.35;;;1.17;;
12867;SDS011;33517;49.866;8.320;2023-03-01T06:00:47;1.00;;;0.63;;
12867;SDS011;33517;49.866;8.320;2023-03-01T06:03:40;3.13;;;1.17;;
12867;SDS011;33517;49.866;8.320;2023-03-01T06:06:33;0.60;;;0.60;;
12867;SDS011;33517;49.866;8.320;2023-03-01T06:09:27;2.50;;;1.27;;
12867;SDS011;33517;49.866;8.320;2023-03-01T06:12:19;5.93;;;1.27;;
12867;SDS011;33517;49.866;8.320;2023-03-01T06:15:13;1.30;;;1.05;;
12867;SDS011;33517;49.866;8.320;2023-03-01T06:18:07;9.95;;;2.55;;
12867;SDS011;33517;49.866;8.320;2023-03-01T06:20:59;3.50;;;1.58;;
12867;SDS011;33517;49.866;8.320;2023-03-01T06:23:51;1.42;;;0.98;;
12867;SDS011;33517;49.866;8.320;2023-03-01T06:26:43;0.52;;;0.52;;
12867;SDS011;33517;49.866;8.320;2023-03-01T06:29:35;2.70;;;1.35;;
12867;SDS011;33517;49.866;8.320;2023-03-01T06:32:28;1.00;;;1.00;;
12867;SDS011;33517;49.866;8.320;2023-03-01T06:35:20;3.97;;;2.33;;
12867;SDS011;33517;49.866;8.320;2023-03-01T06:38:12;1.77;;;1.38;;
12867;SDS011;33517;49.866;8.320;2023-03-01T06:41:05;0.70;;;0.63;;
12867;SDS011;33517;49.866;8.320;2023-03-01T06:43:57;1.10;;;1.05;;
12867;SDS011;33517;49.866;8.320;2023-03-01T06:46:49;1.65;;;1.58;;
12867;SDS011;33517;49.866;8.320;2023-03-01T06:49:42;1.45;;;1.30;;
12867;SDS011;33517;49.866;8.320;2023-03-01T06:52:34;1.70;;;1.60;;
12867;SDS011;33517;49.866;8.320;2023-03-01T06:55:26;1.70;;;1.60;;
12867;SDS011;33517;49.866;8.320;2023-03-01T06:58:18;1.23;;;1.13;;
12867;SDS011;33517;49.866;8.320;2023-03-01T07:01:10;0.82;;;0.82;;
12867;SDS011;33517;49.866;8.320;2023-03-01T07:04:01;1.30;;;1.17;;
12867;SDS011;33517;49.866;8.320;2023-03-01T07:06:55;0.68;;;0.68;;
12867;SDS011;33517;49.866;8.320;2023-03-01T07:09:48;2.58;;;1.08;;
12867;SDS011;33517;49.866;8.320;2023-03-01T07:12:40;2.20;;;1.35;;
12867;SDS011;33517;49.866;8.320;2023-03-01T07:15:32;2.45;;;1.67;;
12867;SDS011;33517;49.866;8.320;2023-03-01T07:18:24;0.93;;;0.88;;
12867;SDS011;33517;49.866;8.320;2023-03-01T07:21:16;0.75;;;0.73;;
12867;SDS011;33517;49.866;8.320;2023-03-01T07:24:09;0.75;;;0.75;;
12867;SDS011;33517;49.866;8.320;2023-03-01T07:27:01;3.83;;;1.83;;
12867;SDS011;33517;49.866;8.320;2023-03-01T07:29:54;1.00;;;1.00;;
12867;SDS011;33517;49.866;8.320;2023-03-01T07:32:46;1.17;;;1.08;;
12867;SDS011;33517;49.866;8.320;2023-03-01T07:35:38;3.33;;;2.08;;
12867;SDS011;33517;49.866;8.320;2023-03-01T07:38:30;1.55;;;1.45;;
12867;SDS011;33517;49.866;8.320;2023-03-01T07:41:23;5.10;;;1.83;;
12867;SDS011;33517;49.866;8.320;2023-03-01T07:44:15;2.58;;;2.08;;
12867;SDS011;33517;49.866;8.320;2023-03-01T07:47:07;3.13;;;2.05;;
12867;SDS011;33517;49.866;8.320;2023-03-01T07:49:59;1.98;;;1.83;;
12867;SDS011;33517;49.866;8.320;2023-03-01T07:52:52;4.53;;;2.40;;
12867;SDS011;33517;49.866;8.320;2023-03-01T07:55:44;3.65;;;2.75;;
12867;SDS011;33517;49.866;8.320;2023-03-01T07:58:38;4.70;;;2.70;;
12867;SDS011;33517;49.866;8.320;2023-03-01T08:01:31;1.45;;;1.38;;
12867;SDS011;33517;49.866;8.320;2023-03-01T08:04:23;4.30;;;2.15;;
12867;SDS011;33517;49.866;8.320;2023-03-01T08:07:17;4.78;;;3.33;;
12867;SDS011;33517;49.866;8.320;2023-03-01T08:10:09;1.50;;;1.38;;
12867;SDS011;33517;49.866;8.320;2023-03-01T08:13:02;1.50;;;1.17;;
12867;SDS011;33517;49.866;8.320;2023-03-01T08:15:59;4.28;;;1.95;;
12867;SDS011;33517;49.866;8.320;2023-03-01T08:18:52;5.07;;;2.38;;
12867;SDS011;33517;49.866;8.320;2023-03-01T08:21:46;2.17;;;1.98;;
12867;SDS011;33517;49.866;8.320;2023-03-01T08:24:38;2.63;;;2.38;;
12867;SDS011;33517;49.866;8.320;2023-03-01T08:27:30;4.28;;;3.05;;
12867;SDS011;33517;49.866;8.320;2023-03-01T08:30:22;3.60;;;2.63;;
12867;SDS011;33517;49.866;8.320;2023-03-01T08:33:16;5.35;;;2.08;;
12867;SDS011;33517;49.866;8.320;2023-03-01T08:36:07;3.13;;;2.13;;
12867;SDS011;33517;49.866;8.320;2023-03-01T08:38:59;3.00;;;1.58;;
12867;SDS011;33517;49.866;8.320;2023-03-01T08:41:51;3.22;;;2.13;;
12867;SDS011;33517;49.866;8.320;2023-03-01T08:44:43;4.28;;;2.53;;
12867;SDS011;33517;49.866;8.320;2023-03-01T08:47:36;5.85;;;3.53;;
12867;SDS011;33517;49.866;8.320;2023-03-01T08:50:29;4.65;;;3.05;;
12867;SDS011;33517;49.866;8.320;2023-03-01T08:53:21;5.07;;;3.40;;
12867;SDS011;33517;49.866;8.320;2023-03-01T08:56:13;3.72;;;3.33;;
12867;SDS011;33517;49.866;8.320;2023-03-01T08:59:06;3.05;;;2.47;;
12867;SDS011;33517;49.866;8.320;2023-03-01T09:01:58;4.35;;;3.05;;
12867;SDS011;33517;49.866;8.320;2023-03-01T09:04:50;4.20;;;3.72;;
12867;SDS011;33517;49.866;8.320;2023-03-01T09:07:43;7.57;;;3.75;;
12867;SDS011;33517;49.866;8.320;2023-03-01T09:10:37;4.05;;;2.92;;
12867;SDS011;33517;49.866;8.320;2023-03-01T09:13:29;4.53;;;3.28;;
12867;SDS011;33517;49.866;8.320;2023-03-01T09:16:22;5.38;;;3.05;;
12867;SDS011;33517;49.866;8.320;2023-03-01T09:19:15;6.03;;;4.47;;
12867;SDS011;33517;49.866;8.320;2023-03-01T09:22:07;3.83;;;2.80;;
12867;SDS011;33517;49.866;8.320;2023-03-01T09:25:00;5.05;;;4.03;;
12867;SDS011;33517;49.866;8.320;2023-03-01T09:27:52;6.03;;;3.70;;
12867;SDS011;33517;49.866;8.320;2023-03-01T09:30:44;5.95;;;4.15;;
12867;SDS011;33517;49.866;8.320;2023-03-01T09:33:36;8.23;;;4.10;;
12867;SDS011;33517;49.866;8.320;2023-03-01T09:36:28;4.93;;;3.13;;
12867;SDS011;33517;49.866;8.320;2023-03-01T09:39:20;4.82;;;3.25;;
12867;SDS011;33517;49.866;8.320;2023-03-01T09:42:13;5.00;;;3.05;;
12867;SDS011;33517;49.866;8.320;2023-03-01T09:45:06;5.35;;;4.18;;
12867;SDS011;33517;49.866;8.320;2023-03-01T09:48:09;4.07;;;3.67;;
12867;SDS011;33517;49.866;8.320;2023-03-01T09:51:07;6.03;;;3.65;;
12867;SDS011;33517;49.866;8.320;2023-03-01T09:54:08;6.63;;;4.18;;
12867;SDS011;33517;49.866;8.320;2023-03-01T09:57:06;4.55;;;3.47;;
12867;SDS011;33517;49.866;8.320;2023-03-01T10:03:25;4.80;;;3.03;;
12867;SDS011;33517;49.866;8.320;2023-03-01T10:06:20;6.25;;;3.55;;
12867;SDS011;33517;49.866;8.320;2023-03-01T10:09:14;8.43;;;4.90;;
12867;SDS011;33517;49.866;8.320;2023-03-01T10:12:09;6.95;;;4.43;;
12867;SDS011;33517;49.866;8.320;2023-03-01T10:15:04;5.05;;;3.92;;
12867;SDS011;33517;49.866;8.320;2023-03-01T10:18:02;6.90;;;4.72;;
12867;SDS011;33517;49.866;8.320;2023-03-01T10:20:58;6.30;;;4.55;;
12867;SDS011;33517;49.866;8.320;2023-03-01T10:23:52;7.18;;;4.63;;
12867;SDS011;33517;49.866;8.320;2023-03-01T10:26:47;5.28;;;3.05;;
12867;SDS011;33517;49.866;8.320;2023-03-01T10:29:46;5.22;;;3.83;;
12867;SDS011;33517;49.866;8.320;2023-03-01T10:32:42;5.65;;;4.50;;
12867;SDS011;33517;49.866;8.320;2023-03-01T10:35:36;6.05;;;4.57;;
12867;SDS011;33517;49.866;8.320;2023-03-01T10:38:28;6.05;;;4.13;;
12867;SDS011;33517;49.866;8.320;2023-03-01T10:41:23;5.80;;;4.15;;
12867;SDS011;33517;49.866;8.320;2023-03-01T10:44:35;8.13;;;4.60;;
12867;SDS011;33517;49.866;8.320;2023-03-01T10:47:31;10.20;;;4.07;;
12867;SDS011;33517;49.866;8.320;2023-03-01T10:50:23;4.47;;;3.67;;
12867;SDS011;33517;49.866;8.320;2023-03-01T10:53:21;6.05;;;4.45;;
12867;SDS011;33517;49.866;8.320;2023-03-01T10:56:16;6.65;;;4.20;;
12867;SDS011;33517;49.866;8.320;2023-03-01T10:59:09;4.57;;;3.85;;
12867;SDS011;33517;49.866;8.320;2023-03-01T11:02:15;14.70;;;5.25;;
12867;SDS011;33517;49.866;8.320;2023-03-01T11:05:15;6.15;;;4.25;;
12867;SDS011;33517;49.866;8.320;2023-03-01T11:08:10;5.68;;;4.13;;
12867;SDS011;33517;49.866;8.320;2023-03-01T11:11:18;7.00;;;3.70;;
12867;SDS011;33517;49.866;8.320;2023-03-01T11:14:15;9.82;;;4.68;;
12867;SDS011;33517;49.866;8.320;2023-03-01T11:17:12;8.65;;;4.55;;
12867;SDS011;33517;49.866;8.320;2023-03-01T11:20:13;9.70;;;4.47;;
12867;SDS011;33517;49.866;8.320;2023-03-01T11:23:12;7.28;;;4.07;;
12867;SDS011;33517;49.866;8.320;2023-03-01T11:26:05;6.45;;;4.80;;
12867;SDS011;33517;49.866;8.320;2023-03-01T11:29:02;7.22;;;4.90;;
12867;SDS011;33517;49.866;8.320;2023-03-01T11:31:58;6.03;;;4.50;;
12867;SDS011;33517;49.866;8.320;2023-03-01T11:34:54;6.10;;;4.50;;
12867;SDS011;33517;49.866;8.320;2023-03-01T11:37:55;7.20;;;4.25;;
12867;SDS011;33517;49.866;8.320;2023-03-01T11:40:57;6.32;;;4.40;;
12867;SDS011;33517;49.866;8.320;2023-03-01T11:43:57;6.47;;;3.65;;
12867;SDS011;33517;49.866;8.320;2023-03-01T11:47:06;7.68;;;4.57;;
12867;SDS011;33517;49.866;8.320;2023-03-01T11:50:16;6.00;;;3.40;;
12867;SDS011;33517;49.866;8.320;2023-03-01T11:53:23;7.28;;;4.47;;
12867;SDS011;33517;49.866;8.320;2023-03-01T11:56:34;5.20;;;4.18;;
12867;SDS011;33517;49.866;8.320;2023-03-01T11:59:51;6.07;;;4.13;;
12867;SDS011;33517;49.866;8.320;2023-03-01T12:06:36;5.15;;;3.70;;
12867;SDS011;33517;49.866;8.320;2023-03-01T12:09:42;5.40;;;3.78;;
12867;SDS011;33517;49.866;8.320;2023-03-01T12:16:22;6.90;;;3.90;;
12867;SDS011;33517;49.866;8.320;2023-03-01T12:19:25;6.90;;;4.65;;
12867;SDS011;33517;49.866;8.320;2023-03-01T12:22:30;5.95;;;4.75;;
12867;SDS011;33517;49.866;8.320;2023-03-01T12:25:25;11.48;;;3.80;;
12867;SDS011;33517;49.866;8.320;2023-03-01T12:28:32;4.22;;;3.50;;
12867;SDS011;33517;49.866;8.320;2023-03-01T12:31:57;7.30;;;3.72;;
12867;SDS011;33517;49.866;8.320;2023-03-01T12:38:32;6.15;;;4.25;;
12867;SDS011;33517;49.866;8.320;2023-03-01T12:41:42;4.95;;;3.58;;
12867;SDS011;33517;49.866;8.320;2023-03-01T12:44:58;7.35;;;3.80;;
12867;SDS011;33517;49.866;8.320;2023-03-01T12:48:09;4.80;;;3.38;;
12867;SDS011;33517;49.866;8.320;2023-03-01T12:51:14;4.78;;;3.70;;
12867;SDS011;33517;49.866;8.320;2023-03-01T12:54:11;5.80;;;3.60;;
12867;SDS011;33517;49.866;8.320;2023-03-01T12:57:09;5.50;;;3.88;;
12867;SDS011;33517;49.866;8.320;2023-03-01T13:00:11;5.22;;;3.70;;
12867;SDS011;33517;49.866;8.320;2023-03-01T13:03:21;6.00;;;3.72;;
12867;SDS011;33517;49.866;8.320;2023-03-01T13:06:24;5.25;;;3.78;;
12867;SDS011;33517;49.866;8.320;2023-03-01T13:09:23;7.78;;;3.55;;
12867;SDS011;33517;49.866;8.320;2023-03-01T13:15:42;4.82;;;3.50;;
12867;SDS011;33517;49.866;8.320;2023-03-01T13:18:35;3.30;;;2.78;;
12867;SDS011;33517;49.866;8.320;2023-03-01T13:21:29;5.68;;;3.72;;
12867;SDS011;33517;49.866;8.320;2023-03-01T13:24:26;4.95;;;3.47;;
12867;SDS011;33517;49.866;8.320;2023-03-01T13:27:21;6.25;;;3.58;;
12867;SDS011;33517;49.866;8.320;2023-03-01T13:33:40;5.68;;;3.30;;
12867;SDS011;33517;49.866;8.320;2023-03-01T13:36:47;3.70;;;3.00;;
12867;SDS011;33517;49.866;8.320;2023-03-01T13:39:40;4.47;;;3.10;;
12867;SDS011;33517;49.866;8.320;2023-03-01T13:42:40;5.85;;;2.78;;
12867;SDS011;33517;49.866;8.320;2023-03-01T13:45:36;3.83;;;3.03;;
12867;SDS011;33517;49.866;8.320;2023-03-01T13:48:31;4.97;;;3.20;;
12867;SDS011;33517;49.866;8.320;2023-03-01T13:51:26;6.00;;;3.95;;
12867;SDS011;33517;49.866;8.320;2023-03-01T13:54:22;6.20;;;3.20;;
12867;SDS011;33517;49.866;8.320;2023-03-01T13:57:18;4.72;;;3.28;;
12867;SDS011;33517;49.866;8.320;2023-03-01T14:00:33;6.50;;;3.50;;
12867;SDS011;33517;49.866;8.320;2023-03-01T14:03:27;5.55;;;3.90;;
12867;SDS011;33517;49.866;8.320;2023-03-01T14:06:21;4.60;;;3.08;;
12867;SDS011;33517;49.866;8.320;2023-03-01T14:09:16;3.35;;;2.63;;
12867;SDS011;33517;49.866;8.320;2023-03-01T14:12:15;4.10;;;3.33;;
12867;SDS011;33517;49.866;8.320;2023-03-01T14:15:18;5.53;;;2.90;;
12867;SDS011;33517;49.866;8.320;2023-03-01T14:18:14;5.70;;;2.90;;
12867;SDS011;33517;49.866;8.320;2023-03-01T14:21:14;5.80;;;2.72;;
12867;SDS011;33517;49.866;8.320;2023-03-01T14:24:14;3.33;;;2.88;;
12867;SDS011;33517;49.866;8.320;2023-03-01T14:27:11;10.93;;;3.20;;
12867;SDS011;33517;49.866;8.320;2023-03-01T14:30:10;4.82;;;3.22;;
12867;SDS011;33517;49.866;8.320;2023-03-01T14:33:15;4.95;;;2.90;;
12867;SDS011;33517;49.866;8.320;2023-03-01T14:36:11;3.58;;;2.35;;
12867;SDS011;33517;49.866;8.320;2023-03-01T14:39:15;6.63;;;2.58;;
12867;SDS011;33517;49.866;8.320;2023-03-01T14:42:11;6.15;;;2.72;;
12867;SDS011;33517;49.866;8.320;2023-03-01T14:45:04;5.13;;;2.13;;
12867;SDS011;33517;49.866;8.320;2023-03-01T14:47:59;5.53;;;2.40;;
12867;SDS011;33517;49.866;8.320;2023-03-01T14:50:53;2.80;;;2.17;;
12867;SDS011;33517;49.866;8.320;2023-03-01T14:53:45;4.25;;;2.53;;
12867;SDS011;33517;49.866;8.320;2023-03-01T14:56:44;3.10;;;2.35;;
12867;SDS011;33517;49.866;8.320;2023-03-01T14:59:36;3.33;;;2.05;;
12867;SDS011;33517;49.866;8.320;2023-03-01T15:02:28;8.25;;;2.42;;
12867;SDS011;33517;49.866;8.320;2023-03-01T15:05:23;1.42;;;1.30;;
12867;SDS011;33517;49.866;8.320;2023-03-01T15:08:20;4.13;;;2.20;;
12867;SDS011;33517;49.866;8.320;2023-03-01T15:11:19;2.33;;;1.27;;
12867;SDS011;33517;49.866;8.320;2023-03-01T15:17:39;2.00;;;1.83;;
12867;SDS011;33517;49.866;8.320;2023-03-01T15:20:31;2.42;;;1.80;;
12867;SDS011;33517;49.866;8.320;2023-03-01T15:23:28;2.75;;;2.28;;
12867;SDS011;33517;49.866;8.320;2023-03-01T15:26:26;2.72;;;1.50;;
12867;SDS011;33517;49.866;8.320;2023-03-01T15:29:21;1.85;;;1.67;;
12867;SDS011;33517;49.866;8.320;2023-03-01T15:32:26;2.33;;;2.05;;
12867;SDS011;33517;49.866;8.320;2023-03-01T15:35:33;3.35;;;2.10;;
12867;SDS011;33517;49.866;8.320;2023-03-01T15:38:33;1.58;;;1.48;;
12867;SDS011;33517;49.866;8.320;2023-03-01T15:41:30;1.75;;;1.65;;
12867;SDS011;33517;49.866;8.320;2023-03-01T15:44:26;1.80;;;1.70;;
12867;SDS011;33517;49.866;8.320;2023-03-01T15:47:25;1.95;;;1.70;;
12867;SDS011;33517;49.866;8.320;2023-03-01T15:50:20;1.05;;;0.98;;
12867;SDS011;33517;49.866;8.320;2023-03-01T15:53:14;3.17;;;1.80;;
12867;SDS011;33517;49.866;8.320;2023-03-01T15:56:06;2.50;;;1.83;;
12867;SDS011;33517;49.866;8.320;2023-03-01T15:58:59;0.73;;;0.73;;
12867;SDS011;33517;49.866;8.320;2023-03-01T16:01:52;1.08;;;0.93;;
12867;SDS011;33517;49.866;8.320;2023-03-01T16:04:46;2.88;;;2.00;;
12867;SDS011;33517;49.866;8.320;2023-03-01T16:07:37;1.58;;;1.48;;
12867;SDS011;33517;49.866;8.320;2023-03-01T16:10:30;1.95;;;1.58;;
12867;SDS011;33517;49.866;8.320;2023-03-01T16:13:22;1.67;;;1.58;;
12867;SDS011;33517;49.866;8.320;2023-03-01T16:16:15;2.72;;;2.13;;
12867;SDS011;33517;49.866;8.320;2023-03-01T16:19:08;1.90;;;1.27;;
12867;SDS011;33517;49.866;8.320;2023-03-01T16:22:01;1.85;;;1.50;;
12867;SDS011;33517;49.866;8.320;2023-03-01T16:24:53;1.40;;;1.30;;
12867;SDS011;33517;49.866;8.320;2023-03-01T16:27:46;1.60;;;1.38;;
12867;SDS011;33517;49.866;8.320;2023-03-01T16:30:40;1.98;;;1.73;;
12867;SDS011;33517;49.866;8.320;2023-03-01T16:33:37;3.20;;;2.20;;
12867;SDS011;33517;49.866;8.320;2023-03-01T16:36:29;2.92;;;1.23;;
12867;SDS011;33517;49.866;8.320;2023-03-01T16:39:23;1.15;;;0.93;;
12867;SDS011;33517;49.866;8.320;2023-03-01T16:42:14;1.95;;;1.52;;
12867;SDS011;33517;49.866;8.320;2023-03-01T16:45:07;1.95;;;1.85;;
12867;SDS011;33517;49.866;8.320;2023-03-01T16:48:00;1.30;;;1.20;;
12867;SDS011;33517;49.866;8.320;2023-03-01T16:50:56;8.10;;;2.00;;
12867;SDS011;33517;49.866;8.320;2023-03-01T16:53:49;1.73;;;1.63;;
12867;SDS011;33517;49.866;8.320;2023-03-01T16:56:43;2.92;;;1.27;;
12867;SDS011;33517;49.866;8.320;2023-03-01T16:59:35;2.42;;;1.50;;
12867;SDS011;33517;49.866;8.320;2023-03-01T17:02:27;1.67;;;1.58;;
12867;SDS011;33517;49.866;8.320;2023-03-01T17:05:19;1.33;;;1.23;;
12867;SDS011;33517;49.866;8.320;2023-03-01T17:08:14;2.55;;;1.65;;
12867;SDS011;33517;49.866;8.320;2023-03-01T17:11:07;2.00;;;1.17;;
12867;SDS011;33517;49.866;8.320;2023-03-01T17:14:01;2.13;;;1.92;;
12867;SDS011;33517;49.866;8.320;2023-03-01T17:16:53;3.00;;;1.10;;
12867;SDS011;33517;49.866;8.320;2023-03-01T17:19:45;1.33;;;1.33;;
12867;SDS011;33517;49.866;8.320;2023-03-01T17:22:37;2.15;;;1.95;;
12867;SDS011;33517;49.866;8.320;2023-03-01T17:25:29;2.60;;;2.15;;
12867;SDS011;33517;49.866;8.320;2023-03-01T17:28:21;7.72;;;4.25;;
12867;SDS011;33517;49.866;8.320;2023-03-01T17:31:15;1.45;;;1.35;;
12867;SDS011;33517;49.866;8.320;2023-03-01T17:34:07;1.52;;;1.45;;
12867;SDS011;33517;49.866;8.320;2023-03-01T17:36:59;3.28;;;2.03;;
12867;SDS011;33517;49.866;8.320;2023-03-01T17:39:51;6.53;;;4.10;;
12867;SDS011;33517;49.866;8.320;2023-03-01T17:42:43;2.38;;;1.75;;
12867;SDS011;33517;49.866;8.320;2023-03-01T17:45:35;1.67;;;1.45;;
12867;SDS011;33517;49.866;8.320;2023-03-01T17:48:29;1.10;;;1.02;;
12867;SDS011;33517;49.866;8.320;2023-03-01T17:51:21;0.82;;;0.80;;
12867;SDS011;33517;49.866;8.320;2023-03-01T17:54:12;4.05;;;1.58;;
12867;SDS011;33517;49.866;8.320;2023-03-01T17:57:04;5.38;;;2.25;;
12867;SDS011;33517;49.866;8.320;2023-03-01T17:59:56;0.70;;;0.70;;